Latest Coastal Weather Observations for Ngayawili (Elcho Island)

IDD60701

Issued at 1:25 pm CST Wednesday 23 July 2014 (issued every 10 minutes, with the page automatically refreshed every 10 minutes)

About coastal observations | Map of coastal stations | Coastal observations for NT | Marine services | Other Formats
Station Details ID: 014517 Name: NGAYAWILI Lat: -12.00 Lon: 135.57 Height: 8.1 m
Data from the previous 72 hours. | See also: Recent months at Ngayawili (Elcho Island)
Date/Time
CST
Temp

°C
Wind Pressure Rain
since 9am
mm
Weather Cloud Vis
km
Sea
Height
m
Swell
Dir
 
Speed
knots
Gust
knots
hPa Trend Height
m
Period
s
Dir
23/01:00pm 28.2 ESE 8 14 1012.4 - 0.0 - - - - - - -
23/12:30pm 27.8 SE 9 16 1012.9 - 0.0 - - - - - - -
23/12:00pm 27.4 SE 10 17 1013.2 - 0.0 - - - - - - -
23/11:30am 26.3 ESE 11 14 1014.0 - 0.0 - - - - - - -
23/11:00am 26.6 ESE 7 13 1014.4 - 0.0 - - - - - - -
23/10:30am 25.5 ESE 9 15 1014.8 - 0.0 - - - - - - -
23/10:00am 24.5 SE 9 14 1015.0 - 0.0 - - - - - - -
23/09:30am 24.0 SE 7 12 1015.3 - 0.0 - - - - - - -
23/09:00am 22.3 SE 8 11 1015.2 - 0.0 - - - - - - -
23/08:30am 21.2 SSE 7 10 1015.3 - 0.0 - - - - - - -
23/08:00am 19.9 SE 5 7 1015.2 - 0.0 - - - - - - -
23/07:30am 19.0 SE 5 7 1015.0 - 0.0 - - - - - - -
23/07:00am 18.5 SE 5 6 1014.6 - 0.0 - - - - - - -
23/06:30am 18.6 SE 6 8 1014.5 - 0.0 - - - - - - -
23/06:00am 18.6 SE 5 7 1014.3 - 0.0 - - - - - - -
23/05:30am 18.7 SE 6 8 1014.1 - 0.0 - - - - - - -
23/05:00am 18.5 SE 5 7 1013.8 - 0.0 - - - - - - -
23/04:30am 18.1 SE 4 5 1013.9 - 0.0 - - - - - - -
23/04:00am 17.7 SE 3 4 1013.9 - 0.0 - - - - - - -
23/03:30am 18.4 SE 3 4 1014.0 - 0.0 - - - - - - -
23/03:00am 18.9 SE 3 4 1014.0 - 0.0 - - - - - - -
23/02:30am 19.2 SE 3 4 1014.3 - 0.0 - - - - - - -
23/02:00am 19.9 SE 4 5 1014.4 - 0.0 - - - - - - -
23/01:30am 20.1 SE 5 7 1014.7 - 0.0 - - - - - - -
23/01:00am 20.0 ESE 4 5 1014.9 - 0.0 - - - - - - -
23/12:30am 20.2 ESE 4 5 1015.1 - 0.0 - - - - - - -
23/12:00am 20.5 ESE 4 6 1015.2 - 0.0 - - - - - - -
 
Date/Time
CST
Temp

°C
Wind Pressure Rain
since 9am
mm
Weather Cloud Vis
km
Sea
Height
m
Swell
Dir
 
Speed
knots
Gust
knots
hPa Trend Height
m
Period
s
Dir
22/11:30pm 20.5 ESE 4 6 1015.2 - 0.0 - - - - - - -
22/11:00pm 21.0 ESE 4 5 1015.5 - 0.0 - - - - - - -
22/10:30pm 21.6 ESE 5 6 1015.6 - 0.0 - - - - - - -
22/10:00pm 21.9 ESE 5 7 1015.4 - 0.0 - - - - - - -
22/09:30pm 22.4 ESE 4 7 1015.2 - 0.0 - - - - - - -
22/09:00pm 22.5 E 5 6 1014.8 - 0.0 - - - - - - -
22/08:30pm 23.2 E 5 6 1014.6 - 0.0 - - - - - - -
22/08:00pm 23.7 ESE 6 8 1014.2 - 0.0 - - - - - - -
22/07:30pm 23.8 ESE 6 8 1014.0 - 0.0 - - - - - - -
22/07:00pm 24.2 E 6 9 1013.6 - 0.0 - - - - - - -
22/06:30pm 24.8 ESE 6 9 1013.3 - 0.0 - - - - - - -
22/06:00pm 25.8 ESE 7 12 1013.0 - 0.0 - - - - - - -
22/05:30pm 26.7 ESE 7 10 1012.7 - 0.0 - - - - - - -
22/05:00pm 27.2 E 9 17 1012.6 - 0.0 - - - - - - -
22/04:30pm 28.0 ESE 9 15 1012.6 - 0.0 - - - - - - -
22/04:00pm 27.9 ESE 12 18 1012.4 - 0.0 - - - - - - -
22/03:30pm 28.5 ESE 10 16 1012.4 - 0.0 - - - - - - -
22/03:00pm 28.3 ESE 10 17 1012.6 - 0.0 - - - - - - -
22/02:30pm 27.7 E 9 16 1012.9 - 0.0 - - - - - - -
22/02:00pm 28.7 ESE 10 15 1013.2 - 0.0 - - - - - - -
22/01:30pm 27.9 ESE 11 17 1013.7 - 0.0 - - - - - - -
22/01:00pm 28.1 ESE 10 17 1014.2 - 0.0 - - - - - - -
22/12:30pm 27.4 ESE 9 15 1014.8 - 0.0 - - - - - - -
22/12:00pm 26.7 ESE 10 15 1015.3 - 0.0 - - - - - - -
22/11:30am 27.4 ESE 9 15 1015.8 - 0.0 - - - - - - -
22/11:00am 25.6 E 10 17 1016.2 - 0.0 - - - - - - -
22/10:30am 25.4 ESE 8 15 1016.6 - 0.0 - - - - - - -
22/10:00am 24.0 SE 6 11 1017.0 - 0.0 - - - - - - -
22/09:30am 23.9 SE 8 15 1017.2 - 0.0 - - - - - - -
22/09:00am 22.2 ESE 7 12 1017.2 - 0.0 - - - - - - -
22/08:30am 20.2 SE 5 8 1017.0 - 0.0 - - - - - - -
22/08:00am 19.5 SE 4 6 1016.8 - 0.0 - - - - - - -
22/07:30am 19.0 SSE 4 5 1016.6 - 0.0 - - - - - - -
22/07:00am 18.2 SSE 4 5 1016.0 - 0.0 - - - - - - -
22/06:30am 17.5 SSE 3 5 1015.8 - 0.0 - - - - - - -
22/06:00am 17.7 SSE 4 5 1015.5 - 0.0 - - - - - - -
22/05:30am 17.8 SSE 3 4 1015.6 - 0.0 - - - - - - -
22/05:00am 18.6 CALM 0 2 1015.7 - 0.0 - - - - - - -
22/04:30am 19.3 SSE 3 5 1015.5 - 0.0 - - - - - - -
22/04:00am 19.7 SSE 5 8 1015.4 - 0.0 - - - - - - -
22/03:30am 19.9 SSE 7 9 1015.3 - 0.0 - - - - - - -
22/03:00am 19.7 SSE 6 8 1015.3 - 0.0 - - - - - - -
22/02:30am 19.5 SE 5 7 1015.6 - 0.0 - - - - - - -
22/02:00am 19.6 SE 4 5 1016.0 - 0.0 - - - - - - -
22/01:30am 20.1 SE 3 3 1016.0 - 0.0 - - - - - - -
22/01:00am 20.7 SE 3 6 1015.9 - 0.0 - - - - - - -
22/12:30am 21.0 SE 4 6 1016.1 - 0.0 - - - - - - -
22/12:00am 21.5 SE 4 6 1016.0 - 0.0 - - - - - - -
 
Date/Time
CST
Temp

°C
Wind Pressure Rain
since 9am
mm
Weather Cloud Vis
km
Sea
Height
m
Swell
Dir
 
Speed
knots
Gust
knots
hPa Trend Height
m
Period
s
Dir
21/11:30pm 21.7 SE 4 6 1016.1 - 0.0 - - - - - - -
21/11:00pm 22.1 ESE 5 8 1016.2 - 0.0 - - - - - - -
21/10:30pm 22.5 ESE 5 7 1016.3 - 0.0 - - - - - - -
21/10:00pm 22.9 ESE 5 8 1016.4 - 0.0 - - - - - - -
21/09:30pm 23.4 ESE 6 9 1016.3 - 0.0 - - - - - - -
21/09:00pm 23.7 ESE 6 9 1016.1 - 0.0 - - - - - - -
21/08:30pm 23.9 ESE 6 11 1015.9 - 0.0 - - - - - - -
21/08:00pm 24.2 ESE 6 10 1015.5 - 0.0 - - - - - - -
21/07:30pm 24.4 ESE 6 10 1015.1 - 0.0 - - - - - - -
21/07:00pm 24.8 ESE 6 11 1014.8 - 0.0 - - - - - - -
21/06:30pm 25.2 E 6 10 1014.2 - 0.0 - - - - - - -
21/06:00pm 26.2 E 6 10 1013.8 - 0.0 - - - - - - -
21/05:30pm 27.4 E 8 15 1013.6 - 0.0 - - - - - - -
21/05:00pm 27.9 E 8 13 1013.3 - 0.0 - - - - - - -
21/04:30pm 28.3 ESE 8 14 1013.2 - 0.0 - - - - - - -
21/04:00pm 28.8 ESE 9 14 1013.1 - 0.0 - - - - - - -
21/03:30pm 28.5 ESE 9 14 1013.1 - 0.0 - - - - - - -
21/03:00pm 28.6 E 9 16 1013.2 - 0.0 - - - - - - -
21/02:30pm 28.5 E 9 16 1013.5 - 0.0 - - - - - - -
21/02:00pm 28.5 E 10 16 1013.8 - 0.0 - - - - - - -
21/01:30pm 28.8 E 9 16 1014.2 - 0.0 - - - - - - -
21/01:00pm 28.1 SE 10 16 1014.4 - 0.0 - - - - - - -
21/12:30pm 27.2 E 11 19 1014.8 - 0.0 - - - - - - -
21/12:00pm 27.7 ESE 10 16 1015.0 - 0.0 - - - - - - -
21/11:30am 27.3 E 9 14 1015.5 - 0.0 - - - - - - -
21/11:00am 27.0 ESE 10 15 1015.8 - 0.0 - - - - - - -
21/10:30am 26.5 ESE 8 14 1015.9 - 0.0 - - - - - - -
21/10:00am 25.6 ESE 7 12 1016.1 - 0.0 - - - - - - -
21/09:30am 24.5 SE 5 9 1016.3 - 0.0 - - - - - - -
21/09:00am 23.1 SE 7 10 1016.2 - 0.0 - - - - - - -
21/08:30am 21.7 SE 7 11 1016.1 - 0.0 - - - - - - -
21/08:00am 20.3 SE 5 7 1015.8 - 0.0 - - - - - - -
21/07:30am 19.2 SSE 6 7 1015.6 - 0.0 - - - - - - -
21/07:00am 18.8 SSE 6 7 1015.3 - 0.0 - - - - - - -
21/06:30am 18.6 SSE 5 7 1015.1 - 0.0 - - - - - - -
21/06:00am 18.8 SE 6 7 1014.7 - 0.0 - - - - - - -
21/05:30am 18.6 SSE 5 6 1014.9 - 0.0 - - - - - - -
21/05:00am 18.8 SSE 5 6 1014.9 - 0.0 - - - - - - -
21/04:30am 18.8 SSE 5 6 1015.0 - 0.0 - - - - - - -
21/04:00am 18.8 SSE 5 6 1015.1 - 0.0 - - - - - - -
21/03:30am 18.8 SSE 5 6 1015.2 - 0.0 - - - - - - -
21/03:00am 19.0 SSE 5 6 1015.2 - 0.0 - - - - - - -
21/02:30am 19.5 SSE 5 6 1015.5 - 0.0 - - - - - - -
21/02:00am 19.9 SSE 6 7 1015.5 - 0.0 - - - - - - -
21/01:30am 20.5 SE 5 7 1015.7 - 0.0 - - - - - - -
21/01:00am 21.0 SSE 5 7 1015.9 - 0.0 - - - - - - -
21/12:30am 21.2 SE 6 9 1016.0 - 0.0 - - - - - - -
21/12:00am 21.4 ESE 7 9 1015.9 - 0.0 - - - - - - -
 
Date/Time
CST
Temp

°C
Wind Pressure Rain
since 9am
mm
Weather Cloud Vis
km
Sea
Height
m
Swell
Dir
 
Speed
knots
Gust
knots
hPa Trend Height
m
Period
s
Dir
20/11:30pm 21.5 SE 7 11 1016.2 - 0.0 - - - - - - -
20/11:00pm 21.8 SE 7 10 1016.3 - 0.0 - - - - - - -
20/10:30pm 22.2 ESE 8 11 1016.2 - 0.0 - - - - - - -
20/10:00pm 22.5 ESE 8 11 1016.1 - 0.0 - - - - - - -
20/09:30pm 22.8 ESE 7 11 1016.0 - 0.0 - - - - - - -
20/09:00pm 23.2 ESE 9 15 1015.7 - 0.0 - - - - - - -
20/08:30pm 23.4 ESE 7 13 1015.5 - 0.0 - - - - - - -
20/08:00pm 23.8 SE 7 11 1015.1 - 0.0 - - - - - - -
20/07:30pm 24.3 ESE 7 11 1014.6 - 0.0 - - - - - - -
20/07:00pm 24.5 E 8 13 1014.2 - 0.0 - - - - - - -
20/06:30pm 24.9 E 7 11 1013.7 - 0.0 - - - - - - -
20/06:00pm 25.6 E 8 14 1013.3 - 0.0 - - - - - - -
20/05:30pm 26.5 E 8 16 1013.1 - 0.0 - - - - - - -
20/05:00pm 27.4 E 8 13 1012.9 - 0.0 - - - - - - -
20/04:30pm 28.5 E 7 11 1012.8 - 0.0 - - - - - - -
20/04:00pm 29.0 ESE 6 10 1012.7 - 0.0 - - - - - - -
20/03:30pm 29.0 E 8 13 1012.7 - 0.0 - - - - - - -
20/03:00pm 29.4 ESE 8 12 1012.6 - 0.0 - - - - - - -
20/02:30pm 29.0 E 7 14 1012.8 - 0.0 - - - - - - -
20/02:00pm 29.2 E 8 13 1013.1 - 0.0 - - - - - - -
20/01:30pm 29.6 SE 10 17 1013.6 - 0.0 - - - - - - -

Other Formats:

Comma delimited format used in spreadsheet applications
http://www.bom.gov.au/fwo/IDD60701/IDD60701.95146.axf

JavaScript Object Notation format (JSON) in row-major order
http://www.bom.gov.au/fwo/IDD60701/IDD60701.95146.json